createdAt,value
2019-05-02T00:02:24.002Z,5.20
2019-05-02T00:05:32.050Z,5.22
2019-05-02T00:08:38.399Z,5.22
2019-05-02T00:11:52.274Z,5.18
2019-05-02T00:14:56.441Z,5.03
2019-05-02T00:18:01.379Z,4.98
2019-05-02T00:21:08.299Z,5.12
2019-05-02T00:24:14.703Z,5.02
2019-05-02T00:27:21.150Z,5.06
2019-05-02T00:30:29.937Z,5.19
2019-05-02T00:33:36.023Z,5.08
2019-05-02T00:36:42.571Z,4.98
2019-05-02T00:39:50.406Z,4.98
2019-05-02T00:42:59.477Z,4.89
2019-05-02T00:46:06.112Z,4.86
2019-05-02T00:49:12.525Z,4.81
2019-05-02T00:52:19.987Z,4.81
2019-05-02T00:55:28.882Z,4.88
2019-05-02T00:58:34.460Z,4.88
2019-05-02T01:01:50.766Z,5.02
2019-05-02T01:04:59.288Z,4.81
2019-05-02T01:08:05.949Z,4.83
2019-05-02T01:11:12.560Z,4.78
2019-05-02T01:14:18.898Z,4.80
2019-05-02T01:17:26.107Z,4.72
2019-05-02T01:20:33.284Z,4.77
2019-05-02T01:23:39.848Z,4.82
2019-05-02T01:27:07.965Z,4.88
2019-05-02T01:30:24.526Z,4.77
2019-05-02T01:33:41.830Z,4.83
2019-05-02T01:36:50.770Z,4.93
2019-05-02T01:39:57.140Z,4.86
2019-05-02T01:43:25.539Z,4.82
2019-05-02T01:46:32.977Z,4.79
2019-05-02T01:49:39.723Z,4.83
2019-05-02T01:52:46.066Z,4.77
2019-05-02T01:55:57.295Z,4.83
2019-05-02T01:59:00.433Z,4.87
2019-05-02T02:02:06.891Z,4.91
2019-05-02T02:05:13.955Z,4.90
2019-05-02T02:08:20.657Z,5.02
2019-05-02T02:11:28.343Z,5.04
2019-05-02T02:14:35.238Z,5.27
2019-05-02T02:17:41.628Z,5.12
2019-05-02T02:20:55.482Z,5.16
2019-05-02T02:24:12.823Z,5.18
2019-05-02T02:27:20.013Z,5.19
2019-05-02T02:30:27.395Z,5.32
2019-05-02T02:33:33.707Z,5.45
2019-05-02T02:36:40.112Z,5.41
2019-05-02T02:39:48.507Z,5.51
2019-05-02T02:42:55.935Z,5.51
2019-05-02T02:46:11.704Z,5.61
2019-05-02T02:49:21.291Z,5.52
2019-05-02T02:52:26.138Z,5.51
2019-05-02T02:55:32.476Z,5.55
2019-05-02T02:58:45.503Z,5.59
2019-05-02T03:01:47.039Z,5.54
2019-05-02T03:04:53.470Z,5.61
2019-05-02T03:08:05.326Z,5.62
2019-05-02T03:11:10.876Z,5.67
2019-05-02T03:14:22.459Z,5.69
2019-05-02T03:17:29.030Z,5.71
2019-05-02T03:20:40.885Z,5.76
2019-05-02T03:23:45.358Z,5.82
2019-05-02T03:26:55.384Z,5.87
2019-05-02T03:30:00.010Z,5.97
2019-05-02T03:33:11.384Z,5.91
2019-05-02T03:36:29.376Z,5.92
2019-05-02T03:39:22.570Z,6.08
2019-05-02T03:42:29.426Z,6.07
2019-05-02T03:45:39.786Z,6.11
2019-05-02T03:48:43.783Z,6.11
2019-05-02T03:51:55.889Z,6.10
2019-05-02T03:54:58.743Z,6.21
2019-05-02T03:58:13.288Z,6.15
2019-05-02T04:01:13.174Z,6.22
2019-05-02T04:04:20.534Z,6.22
2019-05-02T04:07:28.153Z,6.23
2019-05-02T04:11:22.021Z,6.21
2019-05-02T04:14:37.819Z,6.40
2019-05-02T04:17:37.366Z,6.42
2019-05-02T04:20:49.600Z,6.26
2019-05-02T04:23:52.726Z,6.35
2019-05-02T04:26:59.100Z,6.33
2019-05-02T04:30:11.408Z,6.30
2019-05-02T04:33:13.637Z,6.39
2019-05-02T04:36:20.019Z,6.33
2019-05-02T04:39:28.632Z,6.40
2019-05-02T04:42:34.497Z,6.54
2019-05-02T04:45:53.003Z,6.41
2019-05-02T04:48:52.765Z,6.56
2019-05-02T04:52:01.568Z,6.54
2019-05-02T04:55:14.427Z,6.52
2019-05-02T04:58:24.354Z,6.34
2019-05-02T05:01:21.682Z,6.25
2019-05-02T05:04:33.277Z,6.39
2019-05-02T05:07:40.855Z,6.49
2019-05-02T05:10:45.080Z,6.49
2019-05-02T05:13:52.349Z,6.63
2019-05-02T05:16:59.758Z,6.68
2019-05-02T05:20:14.104Z,6.64
2019-05-02T05:23:21.310Z,6.66
2019-05-02T05:26:27.664Z,6.67
2019-05-02T05:29:34.175Z,6.74
2019-05-02T05:32:40.572Z,6.75
2019-05-02T05:35:50.956Z,6.82
2019-05-02T05:38:55.221Z,6.86
2019-05-02T05:42:01.666Z,6.86
2019-05-02T05:45:11.991Z,6.90
2019-05-02T05:48:18.444Z,6.87
2019-05-02T05:51:24.882Z,6.84
2019-05-02T05:54:33.067Z,6.94
2019-05-02T05:57:39.549Z,6.99
2019-05-02T06:00:53.607Z,7.02
2019-05-02T06:03:53.798Z,7.15
2019-05-02T06:07:03.193Z,7.11
2019-05-02T06:10:09.968Z,7.06
2019-05-02T06:13:16.784Z,6.91
2019-05-02T06:16:23.054Z,6.98
2019-05-02T06:19:29.987Z,6.82
2019-05-02T06:22:36.475Z,6.99
2019-05-02T06:25:43.019Z,6.95
2019-05-02T06:28:49.510Z,6.98
2019-05-02T06:31:55.951Z,7.06
2019-05-02T06:35:02.530Z,7.24
2019-05-02T06:38:08.945Z,7.19
2019-05-02T06:41:16.217Z,7.15
2019-05-02T06:44:25.201Z,7.17
2019-05-02T06:47:35.885Z,7.14
2019-05-02T06:50:40.605Z,7.08
2019-05-02T06:53:48.920Z,7.13
2019-05-02T06:56:55.104Z,7.15
2019-05-02T07:00:02.007Z,7.20
2019-05-02T07:03:10.221Z,7.33
2019-05-02T07:06:16.912Z,7.22
2019-05-02T07:09:23.405Z,7.22
2019-05-02T07:12:29.939Z,7.24
2019-05-02T07:15:49.401Z,7.18
2019-05-02T07:18:59.897Z,7.15
2019-05-02T07:22:06.781Z,7.25
2019-05-02T07:25:15.175Z,7.02
2019-05-02T07:28:23.960Z,6.84
2019-05-02T07:31:29.930Z,6.82
2019-05-02T07:34:36.414Z,6.78
2019-05-02T07:37:44.052Z,6.45
2019-05-02T07:40:52.967Z,6.17
2019-05-02T07:43:59.130Z,6.38
2019-05-02T07:47:05.829Z,6.44
2019-05-02T07:50:13.026Z,6.46
2019-05-02T07:53:20.420Z,6.42
2019-05-02T07:56:26.749Z,6.44
2019-05-02T07:59:33.108Z,6.30
2019-05-02T08:02:39.487Z,6.50
2019-05-02T08:05:46.337Z,6.59
2019-05-02T08:08:52.766Z,6.52
2019-05-02T08:11:59.139Z,6.62
2019-05-02T08:15:07.485Z,6.39
2019-05-02T08:18:14.732Z,6.38
2019-05-02T08:21:21.046Z,6.38
2019-05-02T08:24:33.011Z,6.35
2019-05-02T08:27:48.761Z,6.41
2019-05-02T08:30:56.926Z,6.30
2019-05-02T08:34:05.195Z,6.40
2019-05-02T08:37:11.487Z,6.40
2019-05-02T08:40:18.073Z,6.63
2019-05-02T08:43:24.607Z,6.65
2019-05-02T08:46:30.998Z,6.57
2019-05-02T08:49:37.525Z,6.53
2019-05-02T08:52:44.201Z,6.66
2019-05-02T08:55:50.725Z,6.68
2019-05-02T08:58:57.019Z,6.72
2019-05-02T09:02:03.538Z,6.85
2019-05-02T09:05:10.347Z,7.01
2019-05-02T09:08:16.847Z,7.03
2019-05-02T09:11:23.200Z,6.83
2019-05-02T09:14:29.715Z,6.87
2019-05-02T09:17:38.937Z,6.66
2019-05-02T09:20:47.043Z,6.62
2019-05-02T09:23:53.872Z,6.57
2019-05-02T09:27:02.413Z,6.19
2019-05-02T09:30:09.222Z,6.38
2019-05-02T09:33:15.769Z,6.54
2019-05-02T09:36:22.758Z,6.74
2019-05-02T09:39:32.679Z,6.52
2019-05-02T09:42:37.324Z,6.56
2019-05-02T09:45:44.075Z,6.51
2019-05-02T09:48:51.955Z,6.25
2019-05-02T09:52:00.623Z,5.98
2019-05-02T09:55:07.124Z,5.96
2019-05-02T09:58:19.478Z,5.74
2019-05-02T10:01:42.108Z,5.98
2019-05-02T10:04:48.691Z,6.19
2019-05-02T10:07:57.492Z,6.05
2019-05-02T10:11:04.228Z,6.08
2019-05-02T10:14:12.547Z,6.29
2019-05-02T10:17:19.008Z,6.58
2019-05-02T10:20:34.170Z,6.82
2019-05-02T10:23:33.834Z,6.97
2019-05-02T10:26:41.938Z,7.27
2019-05-02T10:29:48.495Z,7.17
2019-05-02T10:32:57.216Z,6.99
2019-05-02T10:36:03.098Z,6.91
2019-05-02T10:39:13.487Z,6.63
2019-05-02T10:42:17.626Z,6.66
2019-05-02T10:45:24.019Z,6.78
2019-05-02T10:48:33.002Z,6.93
2019-05-02T10:51:41.736Z,7.09
2019-05-02T10:54:46.677Z,7.13
2019-05-02T10:57:53.660Z,7.10
2019-05-02T11:01:02.127Z,7.05
2019-05-02T11:04:09.607Z,6.82
2019-05-02T11:07:17.045Z,6.85
2019-05-02T11:10:24.079Z,6.93
2019-05-02T11:13:55.015Z,6.46
2019-05-02T11:17:20.195Z,6.33
2019-05-02T11:20:26.777Z,6.28
2019-05-02T11:23:33.093Z,6.30
2019-05-02T11:26:39.997Z,6.56
2019-05-02T11:29:46.229Z,6.59
2019-05-02T11:32:53.058Z,6.78
2019-05-02T11:36:02.510Z,6.86
2019-05-02T11:39:19.113Z,7.55
2019-05-02T11:42:17.801Z,8.43
2019-05-02T11:45:25.467Z,8.78
2019-05-02T11:48:32.023Z,9.35
2019-05-02T11:51:38.478Z,9.57
2019-05-02T11:54:48.513Z,9.60
2019-05-02T11:57:53.998Z,9.31
2019-05-02T12:01:04.511Z,8.73
2019-05-02T12:04:12.956Z,8.01
2019-05-02T12:07:16.680Z,8.08
2019-05-02T12:10:23.325Z,6.32
2019-05-02T12:13:29.741Z,6.34
2019-05-02T12:16:36.090Z,6.39
2019-05-02T12:19:42.698Z,5.94
2019-05-02T12:22:49.321Z,5.83
2019-05-02T12:25:55.749Z,5.93
2019-05-02T12:29:02.946Z,5.73
2019-05-02T12:32:09.297Z,6.05
2019-05-02T12:35:16.078Z,6.00
2019-05-02T12:38:23.115Z,6.45
2019-05-02T12:41:29.835Z,7.59
2019-05-02T12:44:36.184Z,7.79
2019-05-02T12:47:42.945Z,7.35
2019-05-02T12:50:52.599Z,7.33
2019-05-02T12:53:58.542Z,6.71
2019-05-02T12:57:04.862Z,7.26
2019-05-02T13:00:12.918Z,7.46
2019-05-02T13:03:43.637Z,7.55
2019-05-02T13:06:50.303Z,8.02
2019-05-02T13:09:56.665Z,8.39
2019-05-02T13:13:05.190Z,8.68
2019-05-02T13:16:12.192Z,8.41
2019-05-02T13:19:23.699Z,8.39
2019-05-02T13:22:50.039Z,8.06
2019-05-02T13:25:58.230Z,8.77
2019-05-02T13:29:04.879Z,8.75
2019-05-02T13:32:21.800Z,8.48
2019-05-02T13:35:51.803Z,8.42
2019-05-02T13:38:58.249Z,8.39
2019-05-02T13:42:05.790Z,8.08
2019-05-02T13:45:21.744Z,8.07
2019-05-02T13:48:28.255Z,7.93
2019-05-02T13:51:36.534Z,8.12
2019-05-02T13:54:45.417Z,8.74
2019-05-02T13:57:53.022Z,9.19
2019-05-02T14:00:59.629Z,9.47
2019-05-02T14:04:10.420Z,9.53
2019-05-02T14:07:17.484Z,9.77
2019-05-02T14:10:33.750Z,9.95
2019-05-02T14:13:37.979Z,9.78
2019-05-02T14:16:44.707Z,9.57
2019-05-02T14:19:54.150Z,9.57
2019-05-02T14:22:59.475Z,9.31
2019-05-02T14:26:05.738Z,9.23
2019-05-02T14:29:16.238Z,8.76
2019-05-02T14:32:26.317Z,8.89
2019-05-02T14:35:34.621Z,8.69
2019-05-02T14:38:41.676Z,8.64
2019-05-02T14:41:48.402Z,8.60
2019-05-02T14:45:10.687Z,8.40
2019-05-02T14:48:18.064Z,8.25
2019-05-02T14:51:11.999Z,8.24
2019-05-02T14:54:18.577Z,8.11
2019-05-02T14:57:27.097Z,8.01
2019-05-02T15:00:39.353Z,7.68
2019-05-02T15:03:43.829Z,7.24
2019-05-02T15:06:52.291Z,7.08
2019-05-02T15:10:02.610Z,6.59
2019-05-02T15:13:06.437Z,6.72
2019-05-02T15:16:17.773Z,6.28
2019-05-02T15:19:21.878Z,6.10
2019-05-02T15:22:35.802Z,5.91
2019-05-02T15:25:37.506Z,5.50
2019-05-02T15:28:43.856Z,5.40
2019-05-02T15:31:58.020Z,5.42
2019-05-02T15:35:26.862Z,5.50
2019-05-02T15:38:37.318Z,5.51
2019-05-02T15:41:44.817Z,5.13
2019-05-02T15:44:49.483Z,4.98
2019-05-02T15:47:55.740Z,4.88
2019-05-02T15:51:07.664Z,4.71
2019-05-02T15:54:12.365Z,4.80
2019-05-02T15:57:21.750Z,4.77
2019-05-02T16:00:32.230Z,4.87
2019-05-02T16:03:46.832Z,4.91
2019-05-02T16:06:53.262Z,4.70
2019-05-02T16:10:03.866Z,4.79
2019-05-02T16:13:15.745Z,4.89
2019-05-02T16:16:18.989Z,4.62
2019-05-02T16:19:29.390Z,4.46
2019-05-02T16:22:38.174Z,4.26
2019-05-02T16:25:42.909Z,4.14
2019-05-02T16:28:51.504Z,4.23
2019-05-02T16:32:13.792Z,4.08
2019-05-02T16:35:22.189Z,4.02
2019-05-02T16:38:33.668Z,4.14
2019-05-02T16:41:41.365Z,3.75
2019-05-02T16:44:45.234Z,3.83
2019-05-02T16:47:58.696Z,3.89
2019-05-02T16:51:02.026Z,3.91
2019-05-02T16:54:08.486Z,3.97
2019-05-02T16:57:17.328Z,3.84
2019-05-02T17:00:24.893Z,3.96
2019-05-02T17:03:31.637Z,3.36
2019-05-02T17:06:39.281Z,3.60
2019-05-02T17:10:08.526Z,3.61
2019-05-02T17:13:12.821Z,3.59
2019-05-02T17:16:19.177Z,3.65
2019-05-02T17:19:26.219Z,3.56
2019-05-02T17:22:33.672Z,3.36
2019-05-02T17:25:41.646Z,3.67
2019-05-02T17:28:47.961Z,3.55
2019-05-02T17:31:59.282Z,3.35
2019-05-02T17:35:09.770Z,3.18
2019-05-02T17:38:13.448Z,3.21
2019-05-02T17:41:19.992Z,3.26
2019-05-02T17:44:26.607Z,3.24
2019-05-02T17:47:36.236Z,3.33
2019-05-02T17:51:02.422Z,3.17
2019-05-02T17:54:09.756Z,3.08
2019-05-02T17:57:16.162Z,2.96
2019-05-02T18:00:25.147Z,2.93
2019-05-02T18:03:35.202Z,3.10
2019-05-02T18:06:41.594Z,3.05
2019-05-02T18:09:47.809Z,3.03
2019-05-02T18:12:58.256Z,3.00
2019-05-02T18:16:02.778Z,2.94
2019-05-02T18:19:09.333Z,2.81
2019-05-02T18:22:23.376Z,2.78
2019-05-02T18:25:25.273Z,2.62
2019-05-02T18:28:31.874Z,2.79
2019-05-02T18:31:40.037Z,2.74
2019-05-02T18:34:46.571Z,2.87
2019-05-02T18:37:53.226Z,2.67
2019-05-02T18:41:00.241Z,2.83
2019-05-02T18:44:07.883Z,2.99
2019-05-02T18:47:20.231Z,2.88
2019-05-02T18:50:46.935Z,2.61
2019-05-02T18:53:52.936Z,2.47
2019-05-02T18:56:59.439Z,2.60
2019-05-02T19:00:05.823Z,2.29
2019-05-02T19:03:16.967Z,2.41
2019-05-02T19:06:22.019Z,2.30
2019-05-02T19:09:30.484Z,2.40
2019-05-02T19:12:36.929Z,2.44
2019-05-02T19:15:49.054Z,2.49
2019-05-02T19:18:57.615Z,2.59
2019-05-02T19:22:07.498Z,2.52
2019-05-02T19:25:13.392Z,2.25
2019-05-02T19:28:23.131Z,2.34
2019-05-02T19:31:36.710Z,2.29
2019-05-02T19:34:42.597Z,2.27
2019-05-02T19:37:49.229Z,2.29
2019-05-02T19:40:58.112Z,2.31
2019-05-02T19:44:04.608Z,2.22
2019-05-02T19:47:15.770Z,2.33
2019-05-02T19:50:43.650Z,2.13
2019-05-02T19:53:51.684Z,2.21
2019-05-02T19:56:55.944Z,2.17
2019-05-02T20:00:06.394Z,2.24
2019-05-02T20:03:14.842Z,2.49
2019-05-02T20:06:19.237Z,2.26
2019-05-02T20:09:25.773Z,2.26
2019-05-02T20:12:32.022Z,2.21
2019-05-02T20:15:42.241Z,2.46
2019-05-02T20:18:48.564Z,2.43
2019-05-02T20:22:02.911Z,2.19
2019-05-02T20:25:08.970Z,2.19
2019-05-02T20:28:15.358Z,2.11
2019-05-02T20:31:21.821Z,2.07
2019-05-02T20:34:29.301Z,2.23
2019-05-02T20:37:35.624Z,2.11
2019-05-02T20:40:42.642Z,2.12
2019-05-02T20:43:51.536Z,1.97
2019-05-02T20:46:57.650Z,2.18
2019-05-02T20:50:05.919Z,2.16
2019-05-02T20:53:14.885Z,1.99
2019-05-02T20:56:22.974Z,2.11
2019-05-02T20:59:32.297Z,2.09
2019-05-02T21:02:38.714Z,1.93
2019-05-02T21:05:55.295Z,2.20
2019-05-02T21:09:24.474Z,2.23
2019-05-02T21:12:32.864Z,2.03
2019-05-02T21:15:39.199Z,2.03
2019-05-02T21:18:46.953Z,2.02
2019-05-02T21:21:53.477Z,1.90
2019-05-02T21:25:02.327Z,1.97
2019-05-02T21:28:08.314Z,1.98
2019-05-02T21:31:14.925Z,1.87
2019-05-02T21:34:22.642Z,1.91
2019-05-02T21:37:29.069Z,2.16
2019-05-02T21:40:35.425Z,1.87
2019-05-02T21:43:42.481Z,1.97
2019-05-02T21:46:51.835Z,1.90
2019-05-02T21:50:05.111Z,1.98
2019-05-02T21:53:26.225Z,1.93
2019-05-02T21:56:43.033Z,1.91
2019-05-02T21:59:49.713Z,1.76
2019-05-02T22:02:56.377Z,1.85
2019-05-02T22:06:04.094Z,1.74
2019-05-02T22:09:12.286Z,1.82
2019-05-02T22:12:19.253Z,1.79
2019-05-02T22:15:25.739Z,1.74
2019-05-02T22:18:32.260Z,1.63
2019-05-02T22:21:38.866Z,1.71
2019-05-02T22:24:45.120Z,1.74
2019-05-02T22:27:53.888Z,1.75
2019-05-02T22:30:59.757Z,1.40
2019-05-02T22:34:06.220Z,1.57
2019-05-02T22:37:14.249Z,1.73
2019-05-02T22:40:21.814Z,1.58
2019-05-02T22:43:28.307Z,1.61
2019-05-02T22:46:43.314Z,1.63
2019-05-02T22:49:51.855Z,1.62
2019-05-02T22:52:59.570Z,1.40
2019-05-02T22:56:06.026Z,1.47
2019-05-02T22:59:14.031Z,1.56
2019-05-02T23:02:21.960Z,1.41
2019-05-02T23:05:29.607Z,1.49
2019-05-02T23:08:35.948Z,1.43
2019-05-02T23:11:42.825Z,1.48
2019-05-02T23:14:49.221Z,1.48
2019-05-02T23:17:55.835Z,1.46
2019-05-02T23:21:02.256Z,1.62
2019-05-02T23:24:14.754Z,1.37
2019-05-02T23:27:55.378Z,1.37
2019-05-02T23:31:02.619Z,1.35
2019-05-02T23:34:09.139Z,1.38
2019-05-02T23:37:15.721Z,1.35
2019-05-02T23:40:22.081Z,1.50
2019-05-02T23:43:28.596Z,1.40
2019-05-02T23:46:35.010Z,1.48
2019-05-02T23:49:42.678Z,1.35
2019-05-02T23:52:49.722Z,1.41
2019-05-02T23:55:56.151Z,1.49
2019-05-02T23:59:02.939Z,1.46
